createdAt,value
2019-03-25T00:01:15.150Z,92.00
2019-03-25T00:03:48.424Z,92.70
2019-03-25T00:06:21.953Z,93.70
2019-03-25T00:09:04.799Z,94.10
2019-03-25T00:11:30.416Z,94.70
2019-03-25T00:14:14.780Z,95.20
2019-03-25T00:16:48.418Z,95.50
2019-03-25T00:19:21.665Z,96.00
2019-03-25T00:21:55.101Z,96.50
2019-03-25T00:24:38.236Z,97.00
2019-03-25T00:27:03.745Z,97.30
2019-03-25T00:29:37.110Z,97.40
2019-03-25T00:32:10.677Z,97.30
2019-03-25T00:34:43.922Z,97.30
2019-03-25T00:37:17.267Z,97.50
2019-03-25T00:39:50.527Z,97.60
2019-03-25T00:42:24.570Z,97.60
2019-03-25T00:44:57.925Z,97.90
2019-03-25T00:47:31.393Z,98.40
2019-03-25T00:50:04.823Z,99.00
2019-03-25T00:52:38.187Z,99.30
2019-03-25T00:55:11.727Z,99.70
2019-03-25T00:57:45.356Z,99.90
2019-03-25T01:00:18.806Z,99.90
2019-03-25T01:02:52.501Z,99.90
2019-03-25T01:05:25.821Z,99.90
2019-03-25T01:07:59.302Z,99.90
2019-03-25T01:10:33.398Z,99.90
2019-03-25T01:13:06.817Z,99.90
2019-03-25T01:15:40.442Z,99.90
2019-03-25T01:18:17.016Z,99.90
2019-03-25T01:20:48.919Z,99.90
2019-03-25T01:23:22.232Z,99.90
2019-03-25T01:25:55.490Z,99.90
2019-03-25T01:28:29.059Z,99.90
2019-03-25T01:31:03.265Z,99.90
2019-03-25T01:33:36.686Z,99.90
2019-03-25T01:36:10.059Z,99.90
2019-03-25T01:38:43.721Z,99.90
2019-03-25T01:41:16.947Z,99.90
2019-03-25T01:43:50.408Z,99.90
2019-03-25T01:46:23.655Z,99.90
2019-03-25T01:48:57.388Z,99.90
2019-03-25T01:51:30.643Z,99.90
2019-03-25T01:54:04.062Z,99.90
2019-03-25T01:56:38.025Z,99.90
2019-03-25T01:59:12.001Z,99.90
2019-03-25T02:01:45.460Z,99.90
2019-03-25T02:04:18.619Z,99.90
2019-03-25T02:06:52.311Z,99.90
2019-03-25T02:09:25.836Z,99.90
2019-03-25T02:11:59.192Z,99.90
2019-03-25T02:14:32.643Z,99.90
2019-03-25T02:17:06.922Z,99.90
2019-03-25T02:19:40.288Z,99.90
2019-03-25T02:22:13.721Z,99.90
2019-03-25T02:24:47.064Z,99.90
2019-03-25T02:27:20.522Z,99.90
2019-03-25T02:29:53.851Z,99.90
2019-03-25T02:32:27.190Z,99.90
2019-03-25T02:35:00.560Z,99.90
2019-03-25T02:37:34.147Z,99.90
2019-03-25T02:40:07.873Z,99.90
2019-03-25T02:42:41.414Z,99.90
2019-03-25T02:45:14.984Z,99.90
2019-03-25T02:47:48.283Z,99.90
2019-03-25T02:50:21.763Z,99.90
2019-03-25T02:52:55.068Z,99.90
2019-03-25T02:55:40.785Z,99.90
2019-03-25T02:58:04.321Z,99.90
2019-03-25T03:00:39.267Z,99.90
2019-03-25T03:03:12.733Z,99.90
2019-03-25T03:05:46.256Z,99.90
2019-03-25T03:08:20.041Z,99.90
2019-03-25T03:10:53.582Z,99.90
2019-03-25T03:13:27.031Z,99.90
2019-03-25T03:16:00.473Z,99.90
2019-03-25T03:18:34.615Z,99.90
2019-03-25T03:21:08.420Z,99.90
2019-03-25T03:23:43.001Z,99.90
2019-03-25T03:26:16.515Z,99.90
2019-03-25T03:28:50.211Z,99.90
2019-03-25T03:31:23.616Z,99.90
2019-03-25T03:33:57.391Z,99.90
2019-03-25T03:36:30.916Z,99.90
2019-03-25T03:39:05.582Z,99.90
2019-03-25T03:41:38.778Z,99.90
2019-03-25T03:44:12.212Z,99.90
2019-03-25T03:46:45.579Z,99.90
2019-03-25T03:49:19.120Z,99.90
2019-03-25T03:51:53.747Z,99.90
2019-03-25T03:54:27.471Z,99.90
2019-03-25T03:57:01.358Z,99.90
2019-03-25T03:59:35.214Z,99.90
2019-03-25T04:02:08.438Z,99.90
2019-03-25T04:04:41.754Z,99.90
2019-03-25T04:07:14.989Z,99.90
2019-03-25T04:09:48.277Z,99.90
2019-03-25T04:12:21.661Z,99.90
2019-03-25T04:14:55.143Z,99.90
2019-03-25T04:17:28.650Z,99.90
2019-03-25T04:20:02.291Z,99.90
2019-03-25T04:22:35.551Z,99.90
2019-03-25T04:25:09.635Z,99.90
2019-03-25T04:27:43.173Z,99.90
2019-03-25T04:30:26.392Z,99.90
2019-03-25T04:33:01.941Z,99.90
2019-03-25T04:35:35.368Z,99.90
2019-03-25T04:38:08.713Z,99.90
2019-03-25T04:40:42.036Z,99.90
2019-03-25T04:43:15.254Z,99.90
2019-03-25T04:45:48.846Z,99.90
2019-03-25T04:48:22.197Z,99.90
2019-03-25T04:50:55.627Z,99.90
2019-03-25T04:53:29.017Z,99.90
2019-03-25T04:56:02.515Z,99.90
2019-03-25T04:58:36.085Z,99.90
2019-03-25T05:01:09.525Z,99.90
2019-03-25T05:03:42.710Z,99.90
2019-03-25T05:06:16.450Z,99.90
2019-03-25T05:09:08.420Z,99.90
2019-03-25T05:11:41.886Z,99.90
2019-03-25T05:14:15.314Z,99.90
2019-03-25T05:16:49.884Z,99.90
2019-03-25T05:19:23.120Z,99.90
2019-03-25T05:21:56.366Z,99.90
2019-03-25T05:24:29.679Z,99.90
2019-03-25T05:27:03.026Z,99.90
2019-03-25T05:29:36.404Z,99.90
2019-03-25T05:32:09.810Z,99.90
2019-03-25T05:34:43.185Z,99.90
2019-03-25T05:37:17.252Z,99.90
2019-03-25T05:39:50.541Z,99.90
2019-03-25T05:42:23.951Z,99.90
2019-03-25T05:44:57.338Z,99.90
2019-03-25T05:47:31.037Z,99.90
2019-03-25T05:50:08.779Z,99.90
2019-03-25T05:52:41.484Z,99.90
2019-03-25T05:55:14.941Z,99.90
2019-03-25T05:57:48.278Z,99.90
2019-03-25T06:00:23.924Z,99.90
2019-03-25T06:02:57.612Z,99.90
2019-03-25T06:05:30.762Z,99.80
2019-03-25T06:08:04.153Z,99.90
2019-03-25T06:10:37.770Z,99.80
2019-03-25T06:13:11.145Z,99.90
2019-03-25T06:15:44.437Z,99.90
2019-03-25T06:18:20.306Z,99.90
2019-03-25T06:20:52.986Z,99.20
2019-03-25T06:23:26.367Z,98.90
2019-03-25T06:25:59.640Z,98.30
2019-03-25T06:28:32.864Z,98.10
2019-03-25T06:31:05.945Z,97.10
2019-03-25T06:33:39.583Z,97.70
2019-03-25T06:36:13.180Z,98.40
2019-03-25T06:38:46.929Z,97.00
2019-03-25T06:41:20.086Z,97.00
2019-03-25T06:43:53.357Z,97.60
2019-03-25T06:46:26.698Z,95.00
2019-03-25T06:48:59.883Z,95.40
2019-03-25T06:51:33.690Z,95.00
2019-03-25T06:54:07.042Z,93.70
2019-03-25T06:56:40.882Z,91.80
2019-03-25T06:59:14.277Z,91.60
2019-03-25T07:01:47.683Z,90.80
2019-03-25T07:04:21.015Z,86.20
2019-03-25T07:06:54.324Z,84.50
2019-03-25T07:09:27.635Z,83.00
2019-03-25T07:12:01.187Z,80.30
2019-03-25T07:14:34.762Z,80.60
2019-03-25T07:17:08.049Z,79.60
2019-03-25T07:19:41.467Z,78.20
2019-03-25T07:22:14.887Z,78.80
2019-03-25T07:24:48.480Z,78.60
2019-03-25T07:27:22.199Z,78.20
2019-03-25T07:29:55.555Z,77.80
2019-03-25T07:32:29.064Z,78.60
2019-03-25T07:35:02.274Z,77.50
2019-03-25T07:37:35.903Z,76.50
2019-03-25T07:40:10.064Z,77.90
2019-03-25T07:42:43.581Z,80.30
2019-03-25T07:45:16.948Z,80.40
2019-03-25T07:47:50.291Z,80.80
2019-03-25T07:50:23.843Z,81.00
2019-03-25T07:52:57.140Z,82.00
2019-03-25T07:55:30.491Z,81.30
2019-03-25T07:58:04.067Z,81.50
2019-03-25T08:00:37.589Z,81.80
2019-03-25T08:03:11.047Z,82.50
2019-03-25T08:05:44.590Z,82.50
2019-03-25T08:08:17.859Z,81.80
2019-03-25T08:10:51.242Z,81.00
2019-03-25T08:13:24.930Z,79.70
2019-03-25T08:15:58.448Z,76.20
2019-03-25T08:18:31.708Z,73.30
2019-03-25T08:21:05.156Z,74.30
2019-03-25T08:23:38.335Z,73.50
2019-03-25T08:26:22.010Z,73.70
2019-03-25T08:28:55.329Z,73.60
2019-03-25T08:31:28.575Z,73.80
2019-03-25T08:34:02.134Z,75.30
2019-03-25T08:36:35.466Z,77.50
2019-03-25T08:39:09.881Z,78.20
2019-03-25T08:41:43.484Z,79.00
2019-03-25T08:44:16.666Z,79.70
2019-03-25T08:46:50.010Z,80.50
2019-03-25T08:49:23.554Z,79.90
2019-03-25T08:51:57.003Z,79.10
2019-03-25T08:54:30.424Z,77.50
2019-03-25T08:57:04.030Z,76.70
2019-03-25T08:59:37.817Z,76.00
2019-03-25T09:02:11.157Z,74.50
2019-03-25T09:04:44.858Z,73.80
2019-03-25T09:07:18.050Z,71.10
2019-03-25T09:09:51.335Z,69.90
2019-03-25T09:12:24.617Z,64.30
2019-03-25T09:14:58.006Z,62.10
2019-03-25T09:17:31.266Z,61.60
2019-03-25T09:20:05.063Z,59.10
2019-03-25T09:22:38.414Z,57.30
2019-03-25T09:25:12.118Z,57.00
2019-03-25T09:27:45.616Z,56.20
2019-03-25T09:30:56.324Z,56.00
2019-03-25T09:33:29.793Z,54.10
2019-03-25T09:36:03.232Z,52.40
2019-03-25T09:38:36.687Z,49.50
2019-03-25T09:41:10.212Z,49.30
2019-03-25T09:43:43.566Z,51.20
2019-03-25T09:46:17.061Z,50.20
2019-03-25T09:48:50.844Z,48.60
2019-03-25T09:51:24.497Z,47.00
2019-03-25T09:53:57.975Z,48.30
2019-03-25T09:56:31.338Z,46.70
2019-03-25T09:59:04.759Z,45.10
2019-03-25T10:01:38.458Z,44.00
2019-03-25T10:04:11.756Z,43.40
2019-03-25T10:06:45.312Z,44.40
2019-03-25T10:09:18.648Z,45.00
2019-03-25T10:11:52.077Z,46.80
2019-03-25T10:14:25.669Z,46.40
2019-03-25T10:16:59.261Z,44.60
2019-03-25T10:19:32.447Z,44.80
2019-03-25T10:22:06.077Z,45.40
2019-03-25T10:24:39.401Z,46.00
2019-03-25T10:27:12.747Z,47.00
2019-03-25T10:29:46.056Z,47.70
2019-03-25T10:32:19.325Z,47.70
2019-03-25T10:34:52.613Z,48.10
2019-03-25T10:37:26.237Z,48.70
2019-03-25T10:39:59.434Z,47.80
2019-03-25T10:42:32.838Z,47.00
2019-03-25T10:45:06.956Z,45.70
2019-03-25T10:47:40.353Z,45.60
2019-03-25T10:50:14.378Z,44.90
2019-03-25T10:52:47.823Z,44.70
2019-03-25T10:55:21.502Z,46.10
2019-03-25T10:57:54.960Z,46.70
2019-03-25T11:00:28.527Z,47.50
2019-03-25T11:03:01.819Z,47.80
2019-03-25T11:05:34.914Z,49.20
2019-03-25T11:08:08.460Z,50.10
2019-03-25T11:10:41.723Z,50.00
2019-03-25T11:13:15.155Z,50.80
2019-03-25T11:15:48.444Z,50.70
2019-03-25T11:18:21.936Z,51.20
2019-03-25T11:20:55.726Z,51.60
2019-03-25T11:23:29.199Z,51.90
2019-03-25T11:26:02.587Z,54.30
2019-03-25T11:28:35.734Z,54.70
2019-03-25T11:31:09.078Z,55.00
2019-03-25T11:33:42.362Z,54.60
2019-03-25T11:36:15.593Z,55.50
2019-03-25T11:38:49.113Z,57.20
2019-03-25T11:41:22.477Z,56.90
2019-03-25T11:43:55.640Z,57.20
2019-03-25T11:46:29.067Z,58.00
2019-03-25T11:49:02.507Z,58.80
2019-03-25T11:51:36.070Z,59.50
2019-03-25T11:54:09.418Z,61.20
2019-03-25T11:56:42.723Z,61.70
2019-03-25T11:59:18.803Z,63.30
2019-03-25T12:01:50.994Z,65.30
2019-03-25T12:04:24.383Z,70.30
2019-03-25T12:06:57.593Z,72.40
2019-03-25T12:09:31.167Z,75.00
2019-03-25T12:12:04.667Z,77.00
2019-03-25T12:14:38.009Z,76.90
2019-03-25T12:17:11.438Z,77.10
2019-03-25T12:19:44.957Z,77.60
2019-03-25T12:22:18.126Z,78.50
2019-03-25T12:24:51.496Z,79.40
2019-03-25T12:27:24.941Z,78.50
2019-03-25T12:29:58.551Z,79.00
2019-03-25T12:32:31.811Z,78.20
2019-03-25T12:35:05.870Z,73.80
2019-03-25T12:37:39.127Z,72.60
2019-03-25T12:40:13.171Z,72.00
2019-03-25T12:42:46.544Z,73.40
2019-03-25T12:45:19.877Z,74.00
2019-03-25T12:47:53.241Z,71.50
2019-03-25T12:50:26.612Z,72.20
2019-03-25T12:52:59.960Z,71.60
2019-03-25T12:55:33.118Z,72.00
2019-03-25T12:58:07.426Z,72.20
2019-03-25T13:00:43.420Z,72.00
2019-03-25T13:03:16.806Z,72.90
2019-03-25T13:05:50.495Z,72.50
2019-03-25T13:08:32.772Z,73.70
2019-03-25T13:10:58.955Z,74.60
2019-03-25T13:13:32.189Z,72.80
2019-03-25T13:16:05.829Z,73.30
2019-03-25T13:18:39.179Z,72.50
2019-03-25T13:21:12.735Z,72.10
2019-03-25T13:23:46.190Z,70.50
2019-03-25T13:26:19.750Z,67.70
2019-03-25T13:29:01.618Z,67.00
2019-03-25T13:31:28.322Z,66.30
2019-03-25T13:34:01.650Z,63.60
2019-03-25T13:36:35.012Z,62.60
2019-03-25T13:39:09.268Z,62.60
2019-03-25T13:41:42.502Z,62.10
2019-03-25T13:44:15.935Z,62.60
2019-03-25T13:46:49.288Z,59.80
2019-03-25T13:49:22.841Z,56.10
2019-03-25T13:51:57.064Z,54.10
2019-03-25T13:54:30.736Z,53.50
2019-03-25T13:57:04.476Z,52.00
2019-03-25T13:59:37.966Z,51.20
2019-03-25T14:02:11.629Z,49.40
2019-03-25T14:04:44.966Z,50.00
2019-03-25T14:07:18.867Z,48.40
2019-03-25T14:09:52.265Z,49.10
2019-03-25T14:12:25.493Z,47.50
2019-03-25T14:14:59.053Z,48.80
2019-03-25T14:17:32.464Z,48.40
2019-03-25T14:20:06.883Z,48.80
2019-03-25T14:22:40.463Z,47.70
2019-03-25T14:25:14.046Z,47.60
2019-03-25T14:27:47.703Z,47.20
2019-03-25T14:30:21.221Z,47.70
2019-03-25T14:32:54.680Z,47.50
2019-03-25T14:35:28.113Z,46.30
2019-03-25T14:38:01.480Z,46.00
2019-03-25T14:40:35.124Z,45.80
2019-03-25T14:43:08.430Z,45.10
2019-03-25T14:45:41.839Z,45.00
2019-03-25T14:48:15.104Z,45.40
2019-03-25T14:50:48.669Z,45.80
2019-03-25T14:53:22.261Z,45.60
2019-03-25T14:55:55.968Z,45.60
2019-03-25T14:58:29.422Z,45.70
2019-03-25T15:01:03.044Z,46.50
2019-03-25T15:03:37.159Z,46.20
2019-03-25T15:06:10.483Z,46.10
2019-03-25T15:08:43.806Z,46.60
2019-03-25T15:11:17.115Z,50.90
2019-03-25T15:13:50.517Z,54.20
2019-03-25T15:16:24.135Z,57.30
2019-03-25T15:18:57.403Z,59.20
2019-03-25T15:21:30.842Z,62.20
2019-03-25T15:24:04.267Z,64.30
2019-03-25T15:26:37.653Z,66.20
2019-03-25T15:29:11.326Z,67.00
2019-03-25T15:31:44.516Z,67.60
2019-03-25T15:34:18.272Z,68.10
2019-03-25T15:36:51.597Z,68.90
2019-03-25T15:39:25.061Z,69.60
2019-03-25T15:41:58.701Z,70.10
2019-03-25T15:44:32.137Z,70.00
2019-03-25T15:47:05.468Z,70.00
2019-03-25T15:49:39.172Z,67.50
2019-03-25T15:52:12.436Z,66.60
2019-03-25T15:54:45.713Z,64.50
2019-03-25T15:57:18.984Z,61.50
2019-03-25T15:59:52.328Z,61.00
2019-03-25T16:02:25.615Z,59.40
2019-03-25T16:04:58.965Z,59.10
2019-03-25T16:07:32.231Z,58.80
2019-03-25T16:10:05.986Z,58.50
2019-03-25T16:12:39.394Z,59.00
2019-03-25T16:15:16.700Z,58.80
2019-03-25T16:17:50.100Z,59.90
2019-03-25T16:20:23.642Z,59.10
2019-03-25T16:22:57.063Z,58.80
2019-03-25T16:25:30.890Z,58.90
2019-03-25T16:28:04.181Z,58.90
2019-03-25T16:30:37.543Z,59.00
2019-03-25T16:33:10.761Z,58.70
2019-03-25T16:35:44.294Z,59.10
2019-03-25T16:38:17.803Z,59.20
2019-03-25T16:40:51.278Z,59.80
2019-03-25T16:43:24.820Z,60.60
2019-03-25T16:45:58.663Z,60.80
2019-03-25T16:48:31.834Z,61.30
2019-03-25T16:51:05.375Z,61.20
2019-03-25T16:53:38.945Z,61.70
2019-03-25T16:56:12.395Z,62.10
2019-03-25T16:58:45.852Z,63.40
2019-03-25T17:01:19.452Z,63.40
2019-03-25T17:03:53.043Z,64.00
2019-03-25T17:06:26.443Z,64.50
2019-03-25T17:08:59.883Z,64.80
2019-03-25T17:11:33.256Z,64.50
2019-03-25T17:14:06.905Z,65.10
2019-03-25T17:16:40.180Z,65.30
2019-03-25T17:19:13.726Z,65.10
2019-03-25T17:21:57.418Z,64.30
2019-03-25T17:24:22.371Z,64.40
2019-03-25T17:26:55.767Z,64.40
2019-03-25T17:29:29.142Z,63.90
2019-03-25T17:32:02.796Z,63.60
2019-03-25T17:34:36.452Z,64.00
2019-03-25T17:37:10.281Z,63.40
2019-03-25T17:39:43.643Z,63.00
2019-03-25T17:42:17.175Z,62.50
2019-03-25T17:44:50.981Z,62.60
2019-03-25T17:47:24.383Z,62.60
2019-03-25T17:49:57.812Z,63.30
2019-03-25T17:52:31.227Z,61.80
2019-03-25T17:55:04.875Z,62.00
2019-03-25T17:57:38.598Z,62.20
2019-03-25T18:00:14.317Z,62.80
2019-03-25T18:02:48.069Z,63.60
2019-03-25T18:05:21.553Z,64.20
2019-03-25T18:07:55.333Z,65.00
2019-03-25T18:10:28.670Z,67.50
2019-03-25T18:13:22.380Z,69.10
2019-03-25T18:15:49.619Z,70.10
2019-03-25T18:18:23.043Z,71.20
2019-03-25T18:20:56.715Z,71.30
2019-03-25T18:23:30.145Z,71.30
2019-03-25T18:26:03.861Z,71.10
2019-03-25T18:28:37.473Z,71.30
2019-03-25T18:31:11.210Z,71.10
2019-03-25T18:33:44.894Z,70.50
2019-03-25T18:36:18.554Z,71.00
2019-03-25T18:38:52.321Z,71.20
2019-03-25T18:41:26.455Z,71.30
2019-03-25T18:44:00.499Z,71.60
2019-03-25T18:46:34.147Z,72.00
2019-03-25T18:49:07.668Z,71.90
2019-03-25T18:51:41.299Z,72.20
2019-03-25T18:54:14.663Z,72.80
2019-03-25T18:56:48.427Z,73.40
2019-03-25T18:59:21.783Z,73.50
2019-03-25T19:01:55.138Z,73.60
2019-03-25T19:04:29.011Z,73.90
2019-03-25T19:07:03.474Z,74.10
2019-03-25T19:09:36.884Z,74.80
2019-03-25T19:12:10.963Z,74.80
2019-03-25T19:14:44.276Z,74.60
2019-03-25T19:17:18.352Z,74.80
2019-03-25T19:19:51.690Z,75.30
2019-03-25T19:22:25.288Z,75.40
2019-03-25T19:24:58.587Z,81.30
2019-03-25T19:27:32.471Z,79.60
2019-03-25T19:30:07.158Z,82.00
2019-03-25T19:32:40.867Z,77.30
2019-03-25T19:35:14.601Z,77.00
2019-03-25T19:37:48.177Z,77.40
2019-03-25T19:40:21.545Z,77.40
2019-03-25T19:42:55.110Z,77.80
2019-03-25T19:45:28.450Z,77.80
2019-03-25T19:48:01.588Z,78.50
2019-03-25T19:50:35.088Z,77.50
2019-03-25T19:53:18.642Z,76.90
2019-03-25T19:55:43.924Z,77.10
2019-03-25T19:58:17.789Z,77.40
2019-03-25T20:00:51.407Z,78.20
2019-03-25T20:03:25.227Z,79.10
2019-03-25T20:05:58.597Z,80.00
2019-03-25T20:08:32.798Z,78.40
2019-03-25T20:11:06.390Z,78.50
2019-03-25T20:13:39.711Z,77.50
2019-03-25T20:16:13.463Z,77.00
2019-03-25T20:18:47.089Z,77.70
2019-03-25T20:21:20.609Z,77.50
2019-03-25T20:23:54.060Z,77.20
2019-03-25T20:26:27.764Z,76.90
2019-03-25T20:29:01.252Z,77.70
2019-03-25T20:31:34.505Z,77.50
2019-03-25T20:34:11.257Z,77.10
2019-03-25T20:36:43.542Z,77.40
2019-03-25T20:39:17.010Z,78.30
2019-03-25T20:41:50.446Z,77.90
2019-03-25T20:44:23.961Z,77.50
2019-03-25T20:46:57.673Z,78.50
2019-03-25T20:49:31.173Z,78.50
2019-03-25T20:52:05.228Z,79.10
2019-03-25T20:54:38.714Z,78.80
2019-03-25T20:57:12.023Z,79.60
2019-03-25T20:59:55.208Z,79.10
2019-03-25T21:02:28.569Z,80.20
2019-03-25T21:05:01.927Z,80.30
2019-03-25T21:07:35.542Z,81.30
2019-03-25T21:10:10.392Z,80.50
2019-03-25T21:12:43.996Z,80.60
2019-03-25T21:15:17.226Z,80.50
2019-03-25T21:17:50.761Z,80.40
2019-03-25T21:20:24.313Z,80.30
2019-03-25T21:22:58.193Z,80.20
2019-03-25T21:25:31.456Z,80.70
2019-03-25T21:28:07.961Z,80.40
2019-03-25T21:30:47.767Z,80.60
2019-03-25T21:33:16.726Z,80.60
2019-03-25T21:35:50.102Z,81.10
2019-03-25T21:38:23.540Z,83.00
2019-03-25T21:40:56.778Z,82.20
2019-03-25T21:43:30.355Z,82.20
2019-03-25T21:46:03.585Z,82.30
2019-03-25T21:48:39.822Z,82.00
2019-03-25T21:51:13.642Z,81.80
2019-03-25T21:53:47.065Z,82.50
2019-03-25T21:56:20.510Z,82.70
2019-03-25T21:58:54.290Z,83.00
2019-03-25T22:01:27.928Z,83.50
2019-03-25T22:04:01.205Z,82.80
2019-03-25T22:06:37.404Z,82.60
2019-03-25T22:09:11.002Z,82.80
2019-03-25T22:11:44.469Z,82.50
2019-03-25T22:14:18.148Z,82.70
2019-03-25T22:16:51.454Z,83.00
2019-03-25T22:19:24.959Z,83.00
2019-03-25T22:21:58.170Z,83.20
2019-03-25T22:24:31.786Z,82.90
2019-03-25T22:27:05.378Z,83.00
2019-03-25T22:29:38.679Z,82.90
2019-03-25T22:32:11.884Z,82.50
2019-03-25T22:34:45.585Z,82.40
2019-03-25T22:37:18.829Z,82.50
2019-03-25T22:39:52.461Z,82.10
2019-03-25T22:42:25.876Z,81.70
2019-03-25T22:44:59.335Z,81.90
2019-03-25T22:47:32.585Z,82.20
2019-03-25T22:50:07.660Z,81.80
2019-03-25T22:52:40.847Z,82.30
2019-03-25T22:55:13.976Z,83.20
2019-03-25T22:57:47.359Z,83.60
2019-03-25T23:00:24.464Z,83.50
2019-03-25T23:02:58.182Z,83.60
2019-03-25T23:05:31.541Z,83.00
2019-03-25T23:08:04.619Z,82.80
2019-03-25T23:10:38.029Z,82.30
2019-03-25T23:13:11.743Z,82.10
2019-03-25T23:15:45.081Z,81.80
2019-03-25T23:18:18.584Z,81.40
2019-03-25T23:20:51.989Z,81.20
2019-03-25T23:23:25.281Z,81.60
2019-03-25T23:25:58.884Z,81.80
2019-03-25T23:28:32.465Z,81.80
2019-03-25T23:31:05.956Z,82.30
2019-03-25T23:33:51.429Z,82.40
2019-03-25T23:36:14.543Z,82.10
2019-03-25T23:38:47.789Z,82.10
2019-03-25T23:41:23.175Z,82.80
2019-03-25T23:43:56.395Z,82.30
2019-03-25T23:46:30.132Z,82.30
2019-03-25T23:49:03.571Z,82.30
2019-03-25T23:51:38.009Z,82.40
2019-03-25T23:54:12.518Z,82.20
2019-03-25T23:56:46.111Z,82.30
2019-03-25T23:59:19.313Z,82.40
